sensor_id;sensor_type;location;lat;lon;timestamp;P1;durP1;ratioP1;P2;durP2;ratioP2
36377;SDS011;22402;42.746;23.606;2022-10-30T00:14:58;601.47;;;546.23;;
36377;SDS011;22402;42.746;23.606;2022-10-30T00:17:24;625.90;;;568.40;;
36377;SDS011;22402;42.746;23.606;2022-10-30T00:19:49;633.03;;;576.23;;
36377;SDS011;22402;42.746;23.606;2022-10-30T00:22:14;624.50;;;567.60;;
36377;SDS011;22402;42.746;23.606;2022-10-30T00:24:39;584.97;;;531.83;;
36377;SDS011;22402;42.746;23.606;2022-10-30T00:27:05;600.17;;;546.47;;
36377;SDS011;22402;42.746;23.606;2022-10-30T00:29:30;626.43;;;570.67;;
36377;SDS011;22402;42.746;23.606;2022-10-30T00:31:56;594.13;;;538.17;;
36377;SDS011;22402;42.746;23.606;2022-10-30T00:34:21;635.23;;;576.90;;
36377;SDS011;22402;42.746;23.606;2022-10-30T00:36:47;620.57;;;564.10;;
36377;SDS011;22402;42.746;23.606;2022-10-30T00:39:12;655.00;;;592.23;;
36377;SDS011;22402;42.746;23.606;2022-10-30T00:41:37;638.40;;;579.20;;
36377;SDS011;22402;42.746;23.606;2022-10-30T00:46:57;604.63;;;546.60;;
36377;SDS011;22402;42.746;23.606;2022-10-30T00:49:25;611.10;;;555.80;;
36377;SDS011;22402;42.746;23.606;2022-10-30T00:51:51;592.30;;;536.70;;
36377;SDS011;22402;42.746;23.606;2022-10-30T00:54:19;600.97;;;541.97;;
36377;SDS011;22402;42.746;23.606;2022-10-30T00:56:46;626.60;;;570.17;;
36377;SDS011;22402;42.746;23.606;2022-10-30T00:59:14;649.90;;;590.73;;
36377;SDS011;22402;42.746;23.606;2022-10-30T01:01:47;622.17;;;566.77;;
36377;SDS011;22402;42.746;23.606;2022-10-30T01:04:12;642.43;;;584.43;;
36377;SDS011;22402;42.746;23.606;2022-10-30T01:06:41;649.70;;;592.00;;
36377;SDS011;22402;42.746;23.606;2022-10-30T01:09:09;656.37;;;596.23;;
36377;SDS011;22402;42.746;23.606;2022-10-30T01:11:34;624.00;;;565.50;;
36377;SDS011;22402;42.746;23.606;2022-10-30T01:14:01;639.37;;;579.87;;
36377;SDS011;22402;42.746;23.606;2022-10-30T01:19:29;681.53;;;619.40;;
36377;SDS011;22402;42.746;23.606;2022-10-30T01:22:19;694.23;;;630.97;;
36377;SDS011;22402;42.746;23.606;2022-10-30T01:36:37;630.73;;;573.77;;
36377;SDS011;22402;42.746;23.606;2022-10-30T01:39:08;608.53;;;552.53;;
36377;SDS011;22402;42.746;23.606;2022-10-30T01:41:36;618.53;;;557.63;;
36377;SDS011;22402;42.746;23.606;2022-10-30T01:44:02;650.67;;;589.27;;
36377;SDS011;22402;42.746;23.606;2022-10-30T01:49:18;649.10;;;590.03;;
36377;SDS011;22402;42.746;23.606;2022-10-30T01:59:58;629.67;;;572.23;;
36377;SDS011;22402;42.746;23.606;2022-10-30T02:02:26;666.53;;;604.50;;
36377;SDS011;22402;42.746;23.606;2022-10-30T02:04:52;545.83;;;495.63;;
36377;SDS011;22402;42.746;23.606;2022-10-30T02:07:17;559.10;;;507.97;;
36377;SDS011;22402;42.746;23.606;2022-10-30T02:09:43;561.67;;;507.83;;
36377;SDS011;22402;42.746;23.606;2022-10-30T02:12:09;594.73;;;536.93;;
36377;SDS011;22402;42.746;23.606;2022-10-30T02:14:36;569.63;;;516.13;;
36377;SDS011;22402;42.746;23.606;2022-10-30T02:17:05;592.57;;;538.17;;
36377;SDS011;22402;42.746;23.606;2022-10-30T02:19:33;569.60;;;515.00;;
36377;SDS011;22402;42.746;23.606;2022-10-30T02:21:58;573.23;;;520.23;;
36377;SDS011;22402;42.746;23.606;2022-10-30T02:24:24;572.33;;;518.23;;
36377;SDS011;22402;42.746;23.606;2022-10-30T02:26:49;487.20;;;437.63;;
36377;SDS011;22402;42.746;23.606;2022-10-30T02:29:14;507.30;;;456.03;;
36377;SDS011;22402;42.746;23.606;2022-10-30T02:31:40;516.07;;;464.47;;
36377;SDS011;22402;42.746;23.606;2022-10-30T02:34:05;518.97;;;470.57;;
36377;SDS011;22402;42.746;23.606;2022-10-30T02:36:31;416.77;;;377.47;;
36377;SDS011;22402;42.746;23.606;2022-10-30T02:38:56;311.03;;;282.30;;
36377;SDS011;22402;42.746;23.606;2022-10-30T02:41:22;390.17;;;353.97;;
36377;SDS011;22402;42.746;23.606;2022-10-30T02:43:49;414.60;;;374.40;;
36377;SDS011;22402;42.746;23.606;2022-10-30T02:46:15;300.67;;;272.30;;
36377;SDS011;22402;42.746;23.606;2022-10-30T02:48:40;315.27;;;275.17;;
36377;SDS011;22402;42.746;23.606;2022-10-30T02:51:06;395.43;;;358.53;;
36377;SDS011;22402;42.746;23.606;2022-10-30T02:53:32;162.67;;;127.20;;
36377;SDS011;22402;42.746;23.606;2022-10-30T02:56:01;222.20;;;199.13;;
36377;SDS011;22402;42.746;23.606;2022-10-30T02:58:30;147.50;;;98.57;;
36377;SDS011;22402;42.746;23.606;2022-10-30T03:00:56;120.40;;;103.53;;
36377;SDS011;22402;42.746;23.606;2022-10-30T03:03:21;141.90;;;87.73;;
36377;SDS011;22402;42.746;23.606;2022-10-30T03:05:46;99.57;;;33.93;;
36377;SDS011;22402;42.746;23.606;2022-10-30T03:08:12;79.10;;;31.10;;
36377;SDS011;22402;42.746;23.606;2022-10-30T03:10:37;109.67;;;22.93;;
36377;SDS011;22402;42.746;23.606;2022-10-30T03:13:02;100.80;;;18.87;;
36377;SDS011;22402;42.746;23.606;2022-10-30T03:15:28;71.90;;;17.00;;
36377;SDS011;22402;42.746;23.606;2022-10-30T03:17:53;67.07;;;15.00;;
36377;SDS011;22402;42.746;23.606;2022-10-30T03:20:18;83.83;;;18.47;;
36377;SDS011;22402;42.746;23.606;2022-10-30T03:22:44;78.60;;;16.23;;
36377;SDS011;22402;42.746;23.606;2022-10-30T03:25:09;107.03;;;19.63;;
36377;SDS011;22402;42.746;23.606;2022-10-30T03:27:34;139.73;;;25.73;;
36377;SDS011;22402;42.746;23.606;2022-10-30T03:30:00;59.50;;;17.30;;
36377;SDS011;22402;42.746;23.606;2022-10-30T03:32:25;112.03;;;22.73;;
36377;SDS011;22402;42.746;23.606;2022-10-30T03:34:51;83.20;;;32.33;;
36377;SDS011;22402;42.746;23.606;2022-10-30T03:37:16;62.93;;;29.60;;
36377;SDS011;22402;42.746;23.606;2022-10-30T03:39:41;105.33;;;46.80;;
36377;SDS011;22402;42.746;23.606;2022-10-30T03:42:07;97.53;;;41.03;;
36377;SDS011;22402;42.746;23.606;2022-10-30T03:44:32;90.73;;;32.87;;
36377;SDS011;22402;42.746;23.606;2022-10-30T03:46:57;395.17;;;69.13;;
36377;SDS011;22402;42.746;23.606;2022-10-30T03:54:33;52.43;;;10.60;;
36377;SDS011;22402;42.746;23.606;2022-10-30T03:56:58;74.63;;;13.93;;
36377;SDS011;22402;42.746;23.606;2022-10-30T03:59:23;63.23;;;12.03;;
36377;SDS011;22402;42.746;23.606;2022-10-30T04:01:49;57.13;;;12.03;;
36377;SDS011;22402;42.746;23.606;2022-10-30T04:04:14;84.53;;;15.40;;
36377;SDS011;22402;42.746;23.606;2022-10-30T04:06:39;77.73;;;15.47;;
36377;SDS011;22402;42.746;23.606;2022-10-30T04:09:05;59.10;;;13.30;;
36377;SDS011;22402;42.746;23.606;2022-10-30T04:11:30;61.60;;;14.57;;
36377;SDS011;22402;42.746;23.606;2022-10-30T04:13:55;65.57;;;13.53;;
36377;SDS011;22402;42.746;23.606;2022-10-30T04:16:21;53.13;;;11.50;;
36377;SDS011;22402;42.746;23.606;2022-10-30T04:18:46;98.63;;;17.70;;
36377;SDS011;22402;42.746;23.606;2022-10-30T04:21:11;52.40;;;12.13;;
36377;SDS011;22402;42.746;23.606;2022-10-30T04:23:37;76.40;;;17.03;;
36377;SDS011;22402;42.746;23.606;2022-10-30T04:26:02;57.00;;;13.87;;
36377;SDS011;22402;42.746;23.606;2022-10-30T04:28:27;56.90;;;12.33;;
36377;SDS011;22402;42.746;23.606;2022-10-30T04:30:53;59.43;;;12.20;;
36377;SDS011;22402;42.746;23.606;2022-10-30T04:33:18;61.77;;;12.10;;
36377;SDS011;22402;42.746;23.606;2022-10-30T04:35:43;65.87;;;12.03;;
36377;SDS011;22402;42.746;23.606;2022-10-30T04:38:10;55.57;;;10.27;;
36377;SDS011;22402;42.746;23.606;2022-10-30T04:40:37;47.43;;;11.07;;
36377;SDS011;22402;42.746;23.606;2022-10-30T04:43:06;49.27;;;10.60;;
36377;SDS011;22402;42.746;23.606;2022-10-30T04:45:32;60.07;;;14.23;;
36377;SDS011;22402;42.746;23.606;2022-10-30T04:47:59;83.63;;;18.50;;
36377;SDS011;22402;42.746;23.606;2022-10-30T04:50:25;59.10;;;14.10;;
36377;SDS011;22402;42.746;23.606;2022-10-30T04:52:57;84.53;;;17.67;;
36377;SDS011;22402;42.746;23.606;2022-10-30T04:55:23;79.27;;;17.37;;
36377;SDS011;22402;42.746;23.606;2022-10-30T04:57:48;96.93;;;28.17;;
36377;SDS011;22402;42.746;23.606;2022-10-30T05:00:14;130.47;;;34.53;;
36377;SDS011;22402;42.746;23.606;2022-10-30T05:02:39;87.33;;;20.83;;
36377;SDS011;22402;42.746;23.606;2022-10-30T05:05:04;70.23;;;16.30;;
36377;SDS011;22402;42.746;23.606;2022-10-30T05:07:30;64.60;;;13.10;;
36377;SDS011;22402;42.746;23.606;2022-10-30T05:09:55;51.13;;;10.43;;
36377;SDS011;22402;42.746;23.606;2022-10-30T05:12:21;97.27;;;16.17;;
36377;SDS011;22402;42.746;23.606;2022-10-30T05:14:46;91.40;;;15.43;;
36377;SDS011;22402;42.746;23.606;2022-10-30T05:17:11;84.50;;;13.30;;
36377;SDS011;22402;42.746;23.606;2022-10-30T05:19:36;62.03;;;11.00;;
36377;SDS011;22402;42.746;23.606;2022-10-30T05:22:02;64.80;;;9.83;;
36377;SDS011;22402;42.746;23.606;2022-10-30T05:24:27;67.10;;;11.23;;
36377;SDS011;22402;42.746;23.606;2022-10-30T05:26:55;107.37;;;16.47;;
36377;SDS011;22402;42.746;23.606;2022-10-30T05:29:21;65.17;;;11.03;;
36377;SDS011;22402;42.746;23.606;2022-10-30T05:31:46;61.30;;;11.40;;
36377;SDS011;22402;42.746;23.606;2022-10-30T05:34:12;64.60;;;11.47;;
36377;SDS011;22402;42.746;23.606;2022-10-30T05:36:37;81.70;;;12.77;;
36377;SDS011;22402;42.746;23.606;2022-10-30T05:39:03;68.30;;;11.63;;
36377;SDS011;22402;42.746;23.606;2022-10-30T05:41:28;72.50;;;11.23;;
36377;SDS011;22402;42.746;23.606;2022-10-30T05:43:54;70.47;;;11.03;;
36377;SDS011;22402;42.746;23.606;2022-10-30T05:46:19;103.00;;;15.57;;
36377;SDS011;22402;42.746;23.606;2022-10-30T05:48:44;73.10;;;11.17;;
36377;SDS011;22402;42.746;23.606;2022-10-30T05:51:10;80.00;;;13.13;;
36377;SDS011;22402;42.746;23.606;2022-10-30T05:53:35;57.33;;;11.13;;
36377;SDS011;22402;42.746;23.606;2022-10-30T05:56:00;86.70;;;13.47;;
36377;SDS011;22402;42.746;23.606;2022-10-30T05:58:26;88.67;;;14.17;;
36377;SDS011;22402;42.746;23.606;2022-10-30T06:00:51;68.90;;;13.70;;
36377;SDS011;22402;42.746;23.606;2022-10-30T06:03:17;79.70;;;14.67;;
36377;SDS011;22402;42.746;23.606;2022-10-30T06:05:43;62.00;;;12.00;;
36377;SDS011;22402;42.746;23.606;2022-10-30T06:08:09;63.40;;;14.67;;
36377;SDS011;22402;42.746;23.606;2022-10-30T06:10:35;120.77;;;19.40;;
36377;SDS011;22402;42.746;23.606;2022-10-30T06:13:01;86.13;;;18.60;;
36377;SDS011;22402;42.746;23.606;2022-10-30T06:15:28;113.30;;;19.80;;
36377;SDS011;22402;42.746;23.606;2022-10-30T06:17:55;116.50;;;18.60;;
36377;SDS011;22402;42.746;23.606;2022-10-30T06:20:21;84.50;;;16.87;;
36377;SDS011;22402;42.746;23.606;2022-10-30T06:22:52;97.20;;;20.13;;
36377;SDS011;22402;42.746;23.606;2022-10-30T06:25:19;103.63;;;21.13;;
36377;SDS011;22402;42.746;23.606;2022-10-30T06:27:44;81.00;;;18.33;;
36377;SDS011;22402;42.746;23.606;2022-10-30T06:30:10;99.80;;;19.90;;
36377;SDS011;22402;42.746;23.606;2022-10-30T06:32:35;100.17;;;19.03;;
36377;SDS011;22402;42.746;23.606;2022-10-30T06:35:01;117.17;;;22.50;;
36377;SDS011;22402;42.746;23.606;2022-10-30T06:37:26;105.03;;;22.43;;
36377;SDS011;22402;42.746;23.606;2022-10-30T06:39:51;128.87;;;26.30;;
36377;SDS011;22402;42.746;23.606;2022-10-30T06:42:17;82.97;;;21.20;;
36377;SDS011;22402;42.746;23.606;2022-10-30T06:44:42;98.63;;;23.43;;
36377;SDS011;22402;42.746;23.606;2022-10-30T06:47:08;137.33;;;26.67;;
36377;SDS011;22402;42.746;23.606;2022-10-30T06:49:33;97.80;;;21.50;;
36377;SDS011;22402;42.746;23.606;2022-10-30T06:51:59;112.53;;;24.27;;
36377;SDS011;22402;42.746;23.606;2022-10-30T06:54:24;117.70;;;24.20;;
36377;SDS011;22402;42.746;23.606;2022-10-30T06:56:49;86.30;;;20.80;;
36377;SDS011;22402;42.746;23.606;2022-10-30T06:59:15;113.20;;;23.10;;
36377;SDS011;22402;42.746;23.606;2022-10-30T07:01:40;129.53;;;24.07;;
36377;SDS011;22402;42.746;23.606;2022-10-30T07:04:05;111.93;;;21.97;;
36377;SDS011;22402;42.746;23.606;2022-10-30T07:06:31;112.10;;;23.97;;
36377;SDS011;22402;42.746;23.606;2022-10-30T07:08:56;131.37;;;29.60;;
36377;SDS011;22402;42.746;23.606;2022-10-30T07:11:22;135.13;;;29.77;;
36377;SDS011;22402;42.746;23.606;2022-10-30T07:13:47;99.10;;;29.90;;
36377;SDS011;22402;42.746;23.606;2022-10-30T07:16:13;109.07;;;26.00;;
36377;SDS011;22402;42.746;23.606;2022-10-30T07:18:38;98.73;;;36.43;;
36377;SDS011;22402;42.746;23.606;2022-10-30T07:21:03;110.23;;;62.97;;
36377;SDS011;22402;42.746;23.606;2022-10-30T07:23:29;146.40;;;113.87;;
36377;SDS011;22402;42.746;23.606;2022-10-30T07:25:54;218.07;;;194.37;;
36377;SDS011;22402;42.746;23.606;2022-10-30T07:28:19;280.57;;;215.40;;
36377;SDS011;22402;42.746;23.606;2022-10-30T07:30:47;194.40;;;172.47;;
36377;SDS011;22402;42.746;23.606;2022-10-30T07:33:13;313.43;;;283.10;;
36377;SDS011;22402;42.746;23.606;2022-10-30T07:35:38;373.00;;;339.07;;
36377;SDS011;22402;42.746;23.606;2022-10-30T07:38:04;468.50;;;425.83;;
36377;SDS011;22402;42.746;23.606;2022-10-30T07:40:31;469.03;;;424.87;;
36377;SDS011;22402;42.746;23.606;2022-10-30T07:42:57;379.97;;;345.27;;
36377;SDS011;22402;42.746;23.606;2022-10-30T07:45:24;600.40;;;547.10;;
36377;SDS011;22402;42.746;23.606;2022-10-30T07:47:51;704.73;;;644.77;;
36377;SDS011;22402;42.746;23.606;2022-10-30T07:50:17;758.60;;;695.07;;
36377;SDS011;22402;42.746;23.606;2022-10-30T07:52:43;897.03;;;822.67;;
36377;SDS011;22402;42.746;23.606;2022-10-30T07:55:08;925.60;;;851.17;;
36377;SDS011;22402;42.746;23.606;2022-10-30T07:57:37;917.77;;;841.90;;
36377;SDS011;22402;42.746;23.606;2022-10-30T08:00:04;920.93;;;846.20;;
36377;SDS011;22402;42.746;23.606;2022-10-30T08:02:31;968.90;;;891.67;;
36377;SDS011;22402;42.746;23.606;2022-10-30T08:04:57;980.83;;;905.13;;
36377;SDS011;22402;42.746;23.606;2022-10-30T08:07:22;960.63;;;880.93;;
36377;SDS011;22402;42.746;23.606;2022-10-30T08:09:48;970.47;;;894.17;;
36377;SDS011;22402;42.746;23.606;2022-10-30T08:12:13;997.53;;;918.67;;
36377;SDS011;22402;42.746;23.606;2022-10-30T08:14:39;1002.80;;;923.03;;
36377;SDS011;22402;42.746;23.606;2022-10-30T08:17:05;1017.73;;;934.27;;
36377;SDS011;22402;42.746;23.606;2022-10-30T08:19:30;1028.03;;;945.40;;
36377;SDS011;22402;42.746;23.606;2022-10-30T08:21:55;1032.90;;;950.13;;
36377;SDS011;22402;42.746;23.606;2022-10-30T08:24:21;1044.70;;;961.03;;
36377;SDS011;22402;42.746;23.606;2022-10-30T08:26:46;1053.57;;;967.43;;
36377;SDS011;22402;42.746;23.606;2022-10-30T08:29:15;1045.47;;;960.17;;
36377;SDS011;22402;42.746;23.606;2022-10-30T08:31:41;1014.93;;;930.93;;
36377;SDS011;22402;42.746;23.606;2022-10-30T08:34:06;815.63;;;745.87;;
36377;SDS011;22402;42.746;23.606;2022-10-30T08:36:31;1049.10;;;964.70;;
36377;SDS011;22402;42.746;23.606;2022-10-30T08:38:57;1057.23;;;973.67;;
36377;SDS011;22402;42.746;23.606;2022-10-30T08:41:22;1047.47;;;963.47;;
36377;SDS011;22402;42.746;23.606;2022-10-30T08:43:47;1034.87;;;951.37;;
36377;SDS011;22402;42.746;23.606;2022-10-30T08:46:13;1093.33;;;999.90;;
36377;SDS011;22402;42.746;23.606;2022-10-30T08:48:38;1097.53;;;999.90;;
36377;SDS011;22402;42.746;23.606;2022-10-30T08:51:03;1088.30;;;998.13;;
36377;SDS011;22402;42.746;23.606;2022-10-30T08:53:29;1098.37;;;999.90;;
36377;SDS011;22402;42.746;23.606;2022-10-30T08:55:54;1127.83;;;999.90;;
36377;SDS011;22402;42.746;23.606;2022-10-30T08:58:20;1147.07;;;999.90;;
36377;SDS011;22402;42.746;23.606;2022-10-30T09:00:45;1117.40;;;999.90;;
36377;SDS011;22402;42.746;23.606;2022-10-30T09:03:10;1145.50;;;999.90;;
36377;SDS011;22402;42.746;23.606;2022-10-30T09:05:36;1182.03;;;999.90;;
36377;SDS011;22402;42.746;23.606;2022-10-30T09:08:01;1163.43;;;999.90;;
36377;SDS011;22402;42.746;23.606;2022-10-30T09:10:26;1173.10;;;999.90;;
36377;SDS011;22402;42.746;23.606;2022-10-30T09:12:55;1133.67;;;999.90;;
36377;SDS011;22402;42.746;23.606;2022-10-30T09:15:22;1189.47;;;999.90;;
36377;SDS011;22402;42.746;23.606;2022-10-30T09:17:47;1198.47;;;999.90;;
36377;SDS011;22402;42.746;23.606;2022-10-30T09:20:19;1188.13;;;999.90;;
36377;SDS011;22402;42.746;23.606;2022-10-30T09:22:45;1216.77;;;999.90;;
36377;SDS011;22402;42.746;23.606;2022-10-30T09:25:10;1203.77;;;999.90;;
36377;SDS011;22402;42.746;23.606;2022-10-30T09:27:36;1210.73;;;999.90;;
36377;SDS011;22402;42.746;23.606;2022-10-30T09:30:02;1226.10;;;999.90;;
36377;SDS011;22402;42.746;23.606;2022-10-30T09:32:28;1205.60;;;999.90;;
36377;SDS011;22402;42.746;23.606;2022-10-30T10:34:53;1296.00;;;999.90;;
36377;SDS011;22402;42.746;23.606;2022-10-30T10:46:11;1312.70;;;999.90;;
36377;SDS011;22402;42.746;23.606;2022-10-30T10:51:48;1319.80;;;999.90;;
36377;SDS011;22402;42.746;23.606;2022-10-30T10:54:19;1299.90;;;999.90;;
36377;SDS011;22402;42.746;23.606;2022-10-30T10:56:51;1292.73;;;999.90;;
36377;SDS011;22402;42.746;23.606;2022-10-30T10:59:18;1300.33;;;999.90;;
36377;SDS011;22402;42.746;23.606;2022-10-30T11:01:55;1315.83;;;999.90;;
36377;SDS011;22402;42.746;23.606;2022-10-30T11:04:35;1327.77;;;999.90;;
36377;SDS011;22402;42.746;23.606;2022-10-30T11:07:09;1316.93;;;999.90;;
36377;SDS011;22402;42.746;23.606;2022-10-30T11:09:54;1306.17;;;999.90;;
36377;SDS011;22402;42.746;23.606;2022-10-30T11:12:26;1326.40;;;999.90;;
36377;SDS011;22402;42.746;23.606;2022-10-30T11:14:54;1311.67;;;999.90;;
36377;SDS011;22402;42.746;23.606;2022-10-30T11:19:57;1321.33;;;999.90;;
36377;SDS011;22402;42.746;23.606;2022-10-30T11:22:34;1305.23;;;999.90;;
36377;SDS011;22402;42.746;23.606;2022-10-30T11:25:23;1316.80;;;999.90;;
36377;SDS011;22402;42.746;23.606;2022-10-30T11:27:58;1315.87;;;999.90;;
36377;SDS011;22402;42.746;23.606;2022-10-30T11:30:25;1318.40;;;999.90;;
36377;SDS011;22402;42.746;23.606;2022-10-30T11:32:52;1303.50;;;999.90;;
36377;SDS011;22402;42.746;23.606;2022-10-30T11:35:18;1313.30;;;999.90;;
36377;SDS011;22402;42.746;23.606;2022-10-30T11:37:45;1336.13;;;999.90;;
36377;SDS011;22402;42.746;23.606;2022-10-30T11:40:35;1309.40;;;999.90;;
36377;SDS011;22402;42.746;23.606;2022-10-30T11:43:01;1326.77;;;999.90;;
36377;SDS011;22402;42.746;23.606;2022-10-30T11:45:29;1312.13;;;999.90;;
36377;SDS011;22402;42.746;23.606;2022-10-30T11:47:58;1325.40;;;999.90;;
36377;SDS011;22402;42.746;23.606;2022-10-30T11:50:25;1345.30;;;999.90;;
36377;SDS011;22402;42.746;23.606;2022-10-30T11:53:09;1323.27;;;999.90;;
36377;SDS011;22402;42.746;23.606;2022-10-30T11:55:43;1336.20;;;999.90;;
36377;SDS011;22402;42.746;23.606;2022-10-30T11:58:19;1322.37;;;999.90;;
36377;SDS011;22402;42.746;23.606;2022-10-30T12:01:05;1340.37;;;999.90;;
36377;SDS011;22402;42.746;23.606;2022-10-30T12:03:38;1335.33;;;999.90;;
36377;SDS011;22402;42.746;23.606;2022-10-30T12:06:48;1342.20;;;999.90;;
36377;SDS011;22402;42.746;23.606;2022-10-30T12:09:00;1336.00;;;999.90;;
36377;SDS011;22402;42.746;23.606;2022-10-30T12:11:26;1358.57;;;999.90;;
36377;SDS011;22402;42.746;23.606;2022-10-30T12:13:54;1342.77;;;999.90;;
36377;SDS011;22402;42.746;23.606;2022-10-30T12:16:19;1336.00;;;999.90;;
36377;SDS011;22402;42.746;23.606;2022-10-30T12:18:52;1345.33;;;999.90;;
36377;SDS011;22402;42.746;23.606;2022-10-30T12:21:21;1357.20;;;999.90;;
36377;SDS011;22402;42.746;23.606;2022-10-30T12:23:56;1344.27;;;999.90;;
36377;SDS011;22402;42.746;23.606;2022-10-30T12:26:24;1338.40;;;999.90;;
36377;SDS011;22402;42.746;23.606;2022-10-30T12:28:54;1344.60;;;999.90;;
36377;SDS011;22402;42.746;23.606;2022-10-30T12:31:45;1348.93;;;999.90;;
36377;SDS011;22402;42.746;23.606;2022-10-30T12:34:28;1339.70;;;999.90;;
36377;SDS011;22402;42.746;23.606;2022-10-30T12:36:59;1341.20;;;999.90;;
36377;SDS011;22402;42.746;23.606;2022-10-30T12:39:47;1349.90;;;999.90;;
36377;SDS011;22402;42.746;23.606;2022-10-30T12:42:20;1358.63;;;999.90;;
36377;SDS011;22402;42.746;23.606;2022-10-30T12:44:47;1345.63;;;999.90;;
36377;SDS011;22402;42.746;23.606;2022-10-30T12:47:19;1350.33;;;999.90;;
36377;SDS011;22402;42.746;23.606;2022-10-30T12:50:05;1346.83;;;999.90;;
36377;SDS011;22402;42.746;23.606;2022-10-30T12:52:39;1348.83;;;999.90;;
36377;SDS011;22402;42.746;23.606;2022-10-30T12:55:15;1334.53;;;999.90;;
36377;SDS011;22402;42.746;23.606;2022-10-30T13:00:29;1342.73;;;999.90;;
36377;SDS011;22402;42.746;23.606;2022-10-30T13:05:52;1331.23;;;999.90;;
36377;SDS011;22402;42.746;23.606;2022-10-30T13:11:15;1339.07;;;999.90;;
36377;SDS011;22402;42.746;23.606;2022-10-30T13:13:51;1333.87;;;999.90;;
36377;SDS011;22402;42.746;23.606;2022-10-30T13:16:26;1340.03;;;999.90;;
36377;SDS011;22402;42.746;23.606;2022-10-30T13:18:54;1340.33;;;999.90;;
36377;SDS011;22402;42.746;23.606;2022-10-30T13:21:25;1337.43;;;999.90;;
36377;SDS011;22402;42.746;23.606;2022-10-30T13:24:12;1342.03;;;999.90;;
36377;SDS011;22402;42.746;23.606;2022-10-30T13:26:47;1333.53;;;999.90;;
36377;SDS011;22402;42.746;23.606;2022-10-30T13:37:23;1344.03;;;999.90;;
36377;SDS011;22402;42.746;23.606;2022-10-30T13:43:03;1329.50;;;999.90;;
36377;SDS011;22402;42.746;23.606;2022-10-30T13:45:41;1333.57;;;999.90;;
36377;SDS011;22402;42.746;23.606;2022-10-30T13:48:17;1314.93;;;999.90;;
36377;SDS011;22402;42.746;23.606;2022-10-30T13:53:37;1325.30;;;999.90;;
36377;SDS011;22402;42.746;23.606;2022-10-30T13:56:08;1330.10;;;999.90;;
36377;SDS011;22402;42.746;23.606;2022-10-30T14:03:47;1320.70;;;999.90;;
36377;SDS011;22402;42.746;23.606;2022-10-30T14:06:35;1326.10;;;999.90;;
36377;SDS011;22402;42.746;23.606;2022-10-30T14:15:05;1316.13;;;999.90;;
36377;SDS011;22402;42.746;23.606;2022-10-30T14:17:56;1327.80;;;999.90;;
36377;SDS011;22402;42.746;23.606;2022-10-30T14:20:40;1314.90;;;999.90;;
36377;SDS011;22402;42.746;23.606;2022-10-30T14:23:12;1316.53;;;999.90;;
36377;SDS011;22402;42.746;23.606;2022-10-30T14:25:38;1309.07;;;999.90;;
36377;SDS011;22402;42.746;23.606;2022-10-30T14:28:03;1322.13;;;999.90;;
36377;SDS011;22402;42.746;23.606;2022-10-30T14:30:30;1317.43;;;999.90;;
36377;SDS011;22402;42.746;23.606;2022-10-30T14:32:58;1320.30;;;999.90;;
36377;SDS011;22402;42.746;23.606;2022-10-30T14:35:41;1313.03;;;999.90;;
36377;SDS011;22402;42.746;23.606;2022-10-30T14:40:36;1325.83;;;999.90;;
36377;SDS011;22402;42.746;23.606;2022-10-30T14:43:20;1322.93;;;999.90;;
36377;SDS011;22402;42.746;23.606;2022-10-30T14:45:58;1305.03;;;999.90;;
36377;SDS011;22402;42.746;23.606;2022-10-30T14:48:36;1303.70;;;999.90;;
36377;SDS011;22402;42.746;23.606;2022-10-30T14:59:16;1316.63;;;999.90;;
36377;SDS011;22402;42.746;23.606;2022-10-30T15:15:21;1291.07;;;999.90;;
36377;SDS011;22402;42.746;23.606;2022-10-30T15:17:50;1276.80;;;999.90;;
36377;SDS011;22402;42.746;23.606;2022-10-30T15:20:20;1280.87;;;999.90;;
36377;SDS011;22402;42.746;23.606;2022-10-30T15:22:56;1289.03;;;999.90;;
36377;SDS011;22402;42.746;23.606;2022-10-30T15:25:28;1283.67;;;999.90;;
36377;SDS011;22402;42.746;23.606;2022-10-30T15:27:58;1278.83;;;999.90;;
36377;SDS011;22402;42.746;23.606;2022-10-30T15:30:25;1263.83;;;999.90;;
36377;SDS011;22402;42.746;23.606;2022-10-30T15:32:51;1287.27;;;999.90;;
36377;SDS011;22402;42.746;23.606;2022-10-30T15:35:26;1261.00;;;999.90;;
36377;SDS011;22402;42.746;23.606;2022-10-30T15:37:59;1254.53;;;999.90;;
36377;SDS011;22402;42.746;23.606;2022-10-30T15:40:25;1295.47;;;999.90;;
36377;SDS011;22402;42.746;23.606;2022-10-30T15:42:52;1288.60;;;999.90;;
36377;SDS011;22402;42.746;23.606;2022-10-30T15:45:23;1275.73;;;999.90;;
36377;SDS011;22402;42.746;23.606;2022-10-30T15:47:53;1264.47;;;999.90;;
36377;SDS011;22402;42.746;23.606;2022-10-30T15:50:52;1258.83;;;999.90;;
36377;SDS011;22402;42.746;23.606;2022-10-30T15:53:51;1262.40;;;999.90;;
36377;SDS011;22402;42.746;23.606;2022-10-30T15:56:34;1265.80;;;999.90;;
36377;SDS011;22402;42.746;23.606;2022-10-30T15:59:18;1284.43;;;999.90;;
36377;SDS011;22402;42.746;23.606;2022-10-30T16:01:47;1295.83;;;999.90;;
36377;SDS011;22402;42.746;23.606;2022-10-30T16:04:18;1275.10;;;999.90;;
36377;SDS011;22402;42.746;23.606;2022-10-30T16:09:15;1260.13;;;999.90;;
36377;SDS011;22402;42.746;23.606;2022-10-30T16:11:41;1266.87;;;999.90;;
36377;SDS011;22402;42.746;23.606;2022-10-30T16:14:07;1246.60;;;999.90;;
36377;SDS011;22402;42.746;23.606;2022-10-30T16:16:37;1281.80;;;999.90;;
36377;SDS011;22402;42.746;23.606;2022-10-30T16:19:03;1256.13;;;999.90;;
36377;SDS011;22402;42.746;23.606;2022-10-30T16:21:29;1262.30;;;999.90;;
36377;SDS011;22402;42.746;23.606;2022-10-30T16:23:58;1271.30;;;999.90;;
36377;SDS011;22402;42.746;23.606;2022-10-30T16:28:59;1253.47;;;999.90;;
36377;SDS011;22402;42.746;23.606;2022-10-30T16:31:32;1246.77;;;999.90;;
36377;SDS011;22402;42.746;23.606;2022-10-30T16:33:59;1310.40;;;999.90;;
36377;SDS011;22402;42.746;23.606;2022-10-30T16:36:27;1281.90;;;999.90;;
36377;SDS011;22402;42.746;23.606;2022-10-30T16:38:53;1260.07;;;999.90;;
36377;SDS011;22402;42.746;23.606;2022-10-30T16:41:19;1256.73;;;999.90;;
36377;SDS011;22402;42.746;23.606;2022-10-30T16:44:06;1256.67;;;999.90;;
36377;SDS011;22402;42.746;23.606;2022-10-30T16:46:52;1299.43;;;999.90;;
36377;SDS011;22402;42.746;23.606;2022-10-30T16:49:34;1284.60;;;999.90;;
36377;SDS011;22402;42.746;23.606;2022-10-30T16:52:06;1256.13;;;999.90;;
36377;SDS011;22402;42.746;23.606;2022-10-30T16:54:37;1248.63;;;999.90;;
36377;SDS011;22402;42.746;23.606;2022-10-30T16:57:08;1285.53;;;999.90;;
36377;SDS011;22402;42.746;23.606;2022-10-30T16:59:45;1319.93;;;999.90;;